Time;durP1;ratioP1;P1;durP2;ratioP2;P2;SDS_P1;SDS_P2;PMS_P1;PMS_P2;Temp;Humidity;BMP_temperature;BMP_pressure;BME280_temperature;BME280_humidity;BME280_pressure;Samples;Min_cycle;Max_cycle;Signal;HPM_P1;HPM_P2
2020/12/09 00:02:05;;;;;;;20.52;12.18;;;;;;;1.83;100.00;101664.69;5028659;28;20060;-67
2020/12/09 00:04:51;;;;;;;18.98;11.15;;;;;;;1.89;100.00;101667.50;5014155;28;20046;-66
2020/12/09 00:07:37;;;;;;;20.50;11.70;;;;;;;1.26;100.00;101671.38;5027449;28;20041;-65
2020/12/09 00:10:22;;;;;;;24.05;12.13;;;;;;;1.84;100.00;101669.06;5040742;28;20030;-67
2020/12/09 00:13:07;;;;;;;21.33;12.10;;;;;;;1.81;100.00;101674.13;5041185;28;20038;-66
2020/12/09 00:15:53;;;;;;;22.63;12.95;;;;;;;1.35;100.00;101678.56;5013178;28;20488;-66
2020/12/09 00:18:38;;;;;;;20.50;11.50;;;;;;;1.38;100.00;101676.09;5013493;28;20041;-66
2020/12/09 00:21:24;;;;;;;22.58;12.15;;;;;;;1.65;100.00;101672.72;5013214;28;20042;-66
2020/12/09 00:24:10;;;;;;;26.45;13.32;;;;;;;1.62;100.00;101675.22;5012685;28;20512;-66
2020/12/09 00:26:55;;;;;;;22.27;11.80;;;;;;;1.22;100.00;101678.97;5013381;28;20354;-66
2020/12/09 00:29:40;;;;;;;23.80;13.00;;;;;;;1.50;100.00;101692.88;5026828;28;20034;-66
2020/12/09 00:32:26;;;;;;;22.23;12.45;;;;;;;1.31;100.00;101689.59;5012876;28;20061;-67
2020/12/09 00:35:11;;;;;;;27.20;14.18;;;;;;;1.20;100.00;101686.63;5040653;28;20136;-66
2020/12/09 00:37:57;;;;;;;21.60;12.35;;;;;;;1.55;100.00;101690.44;5026848;28;20099;-67
2020/12/09 00:40:43;;;;;;;22.60;11.82;;;;;;;1.37;100.00;101693.25;5027986;28;20083;-67
2020/12/09 00:43:28;;;;;;;21.30;12.27;;;;;;;1.49;100.00;101700.56;5018950;28;20037;-67
2020/12/09 00:46:16;;;;;;;23.33;12.68;;;;;;;1.65;100.00;101701.13;5019157;28;20064;-66
2020/12/09 00:49:01;;;;;;;21.85;12.40;;;;;;;1.36;100.00;101688.06;5046253;28;20330;-67
2020/12/09 00:51:47;;;;;;;23.20;12.60;;;;;;;1.62;100.00;101698.47;5032576;28;20124;-66
2020/12/09 00:54:32;;;;;;;21.40;12.05;;;;;;;1.56;100.00;101693.06;5032274;28;20033;-66
2020/12/09 00:57:23;;;;;;;25.98;13.60;;;;;;;1.83;100.00;101690.53;5032792;28;20040;-66
2020/12/09 01:00:10;;;;;;;22.33;12.70;;;;;;;1.95;100.00;101691.81;5032321;28;20349;-66
2020/12/09 01:02:55;;;;;;;23.80;13.00;;;;;;;2.07;100.00;101687.06;5046656;28;20029;-66
2020/12/09 01:05:40;;;;;;;23.48;12.88;;;;;;;1.77;100.00;101685.19;5032321;28;20109;-66
2020/12/09 01:08:27;;;;;;;23.30;12.90;;;;;;;1.30;100.00;101688.72;5032697;28;20033;-66
2020/12/09 01:11:12;;;;;;;27.50;15.85;;;;;;;1.43;100.00;101680.59;5032267;28;20045;-66
2020/12/09 01:13:58;;;;;;;23.83;13.63;;;;;;;1.65;100.00;101670.13;5032188;28;20138;-66
2020/12/09 01:16:43;;;;;;;22.48;11.93;;;;;;;1.09;100.00;101684.50;5032143;28;20465;-66
2020/12/09 01:19:29;;;;;;;21.33;12.07;;;;;;;1.06;100.00;101674.97;5046016;28;20029;-66
2020/12/09 01:22:14;;;;;;;21.92;11.82;;;;;;;1.14;100.00;101670.97;5032175;28;20044;-66
2020/12/09 01:25:00;;;;;;;26.85;13.38;;;;;;;1.47;100.00;101666.94;5045868;28;20029;-66
2020/12/09 01:27:45;;;;;;;22.40;12.00;;;;;;;1.29;100.00;101673.19;5032152;28;20053;-65
2020/12/09 01:30:32;;;;;;;25.13;13.20;;;;;;;1.28;100.00;101672.31;5031399;28;20025;-66
2020/12/09 01:33:17;;;;;;;29.35;14.13;;;;;;;1.49;100.00;101665.28;5032286;28;20124;-67
2020/12/09 01:36:02;;;;;;;27.75;13.70;;;;;;;1.70;100.00;101666.03;5032052;28;20043;-66
2020/12/09 01:38:48;;;;;;;26.05;14.00;;;;;;;2.00;100.00;101661.84;5031710;28;20029;-66
2020/12/09 01:41:33;;;;;;;26.05;13.82;;;;;;;1.86;100.00;101652.78;5012260;28;20128;-66
2020/12/09 01:44:19;;;;;;;24.63;13.73;;;;;;;1.49;100.00;101665.28;5012247;28;20080;-67
2020/12/09 01:47:05;;;;;;;24.75;14.18;;;;;;;2.04;100.00;101663.69;5012185;28;20068;-67
2020/12/09 01:49:51;;;;;;;24.10;13.45;;;;;;;1.83;100.00;101660.44;5012068;28;20042;-66
2020/12/09 01:52:37;;;;;;;25.27;13.77;;;;;;;1.84;100.00;101654.41;5012120;28;20068;-66
2020/12/09 01:55:22;;;;;;;27.10;13.95;;;;;;;1.63;100.00;101651.16;5011910;28;20045;-67
2020/12/09 01:58:08;;;;;;;29.92;15.65;;;;;;;1.28;100.00;101653.38;5012432;28;20041;-66
2020/12/09 02:00:54;;;;;;;27.98;15.05;;;;;;;2.03;100.00;101656.78;5012180;28;20532;-67
2020/12/09 02:03:39;;;;;;;25.33;14.35;;;;;;;1.31;100.00;101659.50;5015941;28;20179;-66
2020/12/09 02:06:25;;;;;;;25.60;13.40;;;;;;;1.28;100.00;101658.53;5015990;28;20453;-66
2020/12/09 02:09:10;;;;;;;27.45;15.18;;;;;;;1.35;100.00;101656.22;5001892;28;20030;-66
2020/12/09 02:11:59;;;;;;;26.70;15.18;;;;;;;1.58;100.00;101644.06;5015834;28;20042;-67
2020/12/09 02:14:44;;;;;;;29.45;15.93;;;;;;;1.74;100.00;101643.75;5001885;28;20029;-66
2020/12/09 02:17:30;;;;;;;26.42;14.20;;;;;;;1.45;100.00;101645.34;5015868;28;20432;-66
2020/12/09 02:20:15;;;;;;;25.95;14.35;;;;;;;1.68;100.00;101631.50;5002296;28;20401;-66
2020/12/09 02:23:01;;;;;;;24.20;13.93;;;;;;;1.85;100.00;101632.06;5002106;28;20346;-68
2020/12/09 02:25:47;;;;;;;26.83;14.27;;;;;;;1.17;100.00;101629.78;5001538;28;20046;-67
2020/12/09 02:28:32;;;;;;;26.42;13.73;;;;;;;1.41;100.00;101625.41;5015489;28;20045;-66
2020/12/09 02:31:18;;;;;;;26.95;14.25;;;;;;;1.15;100.00;101622.78;5001281;28;20492;-66
2020/12/09 02:34:03;;;;;;;32.97;15.68;;;;;;;1.56;100.00;101622.50;5015161;28;20095;-67
2020/12/09 02:36:49;;;;;;;29.35;15.45;;;;;;;1.49;100.00;101629.13;5015043;28;20476;-67
2020/12/09 02:39:37;;;;;;;27.85;14.63;;;;;;;1.44;100.00;101625.53;5020882;28;20510;-67
2020/12/09 02:42:22;;;;;;;25.42;14.82;;;;;;;1.50;100.00;101620.59;5034860;28;20413;-67
2020/12/09 02:45:07;;;;;;;28.42;15.32;;;;;;;1.71;100.00;101625.56;5034475;28;20481;-66
2020/12/09 02:47:53;;;;;;;25.63;14.48;;;;;;;1.09;100.00;101625.16;5034827;28;20473;-67
2020/12/09 02:50:38;;;;;;;26.15;13.80;;;;;;;1.15;100.00;101630.53;5035416;28;20041;-65
2020/12/09 02:53:24;;;;;;;27.08;13.90;;;;;;;1.38;100.00;101621.88;5035311;28;20060;-66
2020/12/09 02:56:10;;;;;;;26.92;14.38;;;;;;;1.44;100.00;101620.38;5034905;28;20511;-66
2020/12/09 02:58:55;;;;;;;26.75;14.55;;;;;;;1.28;100.00;101614.66;5034954;28;20068;-67
2020/12/09 03:01:40;;;;;;;25.08;13.52;;;;;;;0.94;100.00;101619.47;5034974;28;20041;-66
2020/12/09 03:04:26;;;;;;;24.27;13.73;;;;;;;1.07;100.00;101613.91;5034680;28;20361;-65
2020/12/09 03:07:11;;;;;;;24.33;14.05;;;;;;;1.49;100.00;101610.22;5034591;28;20043;-66
2020/12/09 03:09:57;;;;;;;25.92;13.15;;;;;;;0.97;100.00;101617.88;5034086;28;20036;-66
2020/12/09 03:12:42;;;;;;;25.77;13.07;;;;;;;1.45;100.00;101610.94;5033328;28;20037;-65
2020/12/09 03:15:27;;;;;;;30.00;14.73;;;;;;;1.10;100.00;101608.84;5020534;28;20040;-66
2020/12/09 03:18:13;;;;;;;27.83;15.27;;;;;;;1.40;100.00;101610.78;5034330;28;20033;-66
2020/12/09 03:20:58;;;;;;;28.58;16.20;;;;;;;1.30;100.00;101613.00;5034052;28;20496;-66
2020/12/09 03:23:44;;;;;;;28.33;15.77;;;;;;;1.15;100.00;101610.78;5033926;28;20045;-66
2020/12/09 03:26:29;;;;;;;35.33;18.20;;;;;;;1.02;100.00;101615.44;5034161;28;20067;-66
2020/12/09 03:29:14;;;;;;;28.23;15.10;;;;;;;0.90;100.00;101621.06;5033920;28;20083;-66
2020/12/09 03:32:00;;;;;;;33.25;17.17;;;;;;;1.50;100.00;101610.25;5033588;28;20053;-66
2020/12/09 03:34:45;;;;;;;33.75;17.73;;;;;;;1.02;100.00;101615.44;5033946;28;20068;-66
2020/12/09 03:37:31;;;;;;;32.30;17.20;;;;;;;1.31;100.00;101602.72;5047870;28;20044;-66
2020/12/09 03:40:17;;;;;;;28.90;15.02;;;;;;;1.06;100.00;101604.41;5021610;28;20066;-66
2020/12/09 03:43:02;;;;;;;30.98;16.17;;;;;;;0.75;100.00;101596.41;5013832;28;20406;-66
2020/12/09 03:45:48;;;;;;;32.38;16.30;;;;;;;1.16;100.00;101593.59;5013821;28;20037;-66
2020/12/09 03:48:33;;;;;;;28.20;16.20;;;;;;;1.48;100.00;101590.38;5013996;28;20485;-66
2020/12/09 03:51:19;;;;;;;35.90;17.85;;;;;;;1.53;100.00;101586.25;5013730;28;20044;-66
2020/12/09 03:54:04;;;;;;;32.03;17.02;;;;;;;1.51;100.00;101582.72;5013539;28;20041;-66
2020/12/09 03:56:50;;;;;;;39.63;18.08;;;;;;;1.23;100.00;101592.94;5000137;28;20112;-67
2020/12/09 03:59:36;;;;;;;33.20;17.30;;;;;;;1.56;100.00;101597.53;5000139;28;20042;-67
2020/12/09 04:02:21;;;;;;;34.80;17.50;;;;;;;1.42;100.00;101593.63;5013643;28;20092;-66
2020/12/09 04:05:07;;;;;;;32.33;16.90;;;;;;;1.46;100.00;101602.34;5013624;28;20092;-66
2020/12/09 04:07:52;;;;;;;31.58;17.35;;;;;;;1.52;100.00;101608.59;5013681;28;20080;-66
2020/12/09 04:10:37;;;;;;;32.33;18.15;;;;;;;1.29;100.00;101612.09;5013075;28;20037;-66
2020/12/09 04:13:23;;;;;;;32.95;16.48;;;;;;;1.26;100.00;101612.03;5013582;28;20033;-66
2020/12/09 04:16:08;;;;;;;37.90;18.83;;;;;;;1.58;100.00;101616.56;5013522;28;20033;-65
2020/12/09 04:18:54;;;;;;;35.47;18.17;;;;;;;1.16;100.00;101628.00;4999666;28;20119;-66
2020/12/09 04:21:39;;;;;;;31.63;16.90;;;;;;;0.83;100.00;101623.34;5013301;28;20377;-65
2020/12/09 04:24:25;;;;;;;39.28;18.23;;;;;;;1.15;100.00;101626.25;4999060;28;20112;-66
2020/12/09 04:27:10;;;;;;;32.38;17.70;;;;;;;1.43;100.00;101616.03;4999535;28;20049;-66
2020/12/09 04:29:57;;;;;;;32.53;18.08;;;;;;;1.56;100.00;101619.91;5013113;28;20034;-66
2020/12/09 04:32:42;;;;;;;35.72;19.70;;;;;;;1.42;100.00;101615.97;4999172;28;20053;-66
2020/12/09 04:35:28;;;;;;;32.42;18.50;;;;;;;1.73;100.00;101613.59;5013023;28;20116;-66
2020/12/09 04:38:13;;;;;;;28.33;15.40;;;;;;;1.35;100.00;101614.91;5012934;28;20465;-66
2020/12/09 04:40:58;;;;;;;29.77;15.65;;;;;;;1.04;100.00;101616.41;5030299;28;20033;-66
2020/12/09 04:43:44;;;;;;;28.20;15.30;;;;;;;0.91;100.00;101604.75;5032544;28;20127;-66
2020/12/09 04:46:30;;;;;;;29.92;15.40;;;;;;;0.95;100.00;101600.56;5032744;28;20037;-66
2020/12/09 04:49:18;;;;;;;28.08;14.45;;;;;;;0.85;100.00;101599.41;5032558;28;20368;-66
2020/12/09 04:52:09;;;;;;;29.90;15.52;;;;;;;1.11;100.00;101600.28;5032542;28;20033;-66
2020/12/09 04:55:04;;;;;;;25.45;14.52;;;;;;;0.96;100.00;101595.47;5046268;28;20031;-66
2020/12/09 04:58:11;;;;;;;28.00;14.77;;;;;;;0.79;100.00;101587.97;5046321;28;20424;-66
2020/12/09 05:01:05;;;;;;;28.38;15.90;;;;;;;0.79;100.00;101593.13;5046235;28;20043;-67
2020/12/09 05:03:51;;;;;;;32.30;16.85;;;;;;;0.89;100.00;101590.94;5032255;28;20143;-67
2020/12/09 05:06:37;;;;;;;29.77;16.85;;;;;;;1.18;100.00;101589.34;5032372;28;20041;-67
2020/12/09 05:09:26;;;;;;;30.63;16.85;;;;;;;0.98;100.00;101585.22;5032047;28;20037;-66
2020/12/09 05:12:17;;;;;;;36.85;19.20;;;;;;;0.89;100.00;101575.47;5032209;28;20053;-66
2020/12/09 05:15:02;;;;;;;36.70;19.05;;;;;;;1.18;100.00;101568.72;5046095;28;20099;-67
2020/12/09 05:18:03;;;;;;;34.25;18.70;;;;;;;0.94;100.00;101567.88;5032361;28;20076;-66
2020/12/09 05:20:50;;;;;;;34.22;17.52;;;;;;;0.89;100.00;101582.31;5032185;28;20464;-66
2020/12/09 05:23:42;;;;;;;31.63;17.48;;;;;;;0.97;100.00;101588.63;5032024;28;20124;-67
2020/12/09 05:26:36;;;;;;;41.63;20.58;;;;;;;1.20;100.00;101586.00;5032463;28;20095;-66
2020/12/09 05:29:21;;;;;;;35.60;18.42;;;;;;;1.37;100.00;101582.25;5018748;28;20044;-68
2020/12/09 05:32:07;;;;;;;37.55;18.73;;;;;;;1.34;100.00;101601.94;5031977;28;20057;-67
2020/12/09 05:34:52;;;;;;;36.67;20.98;;;;;;;1.40;100.00;101605.59;5032011;28;20124;-66
2020/12/09 05:37:38;;;;;;;37.65;20.48;;;;;;;1.92;100.00;101614.22;5035341;28;20044;-67
2020/12/09 05:40:30;;;;;;;45.67;22.75;;;;;;;1.77;100.00;101624.03;5022639;28;20026;-66
2020/12/09 05:43:17;;;;;;;30.35;17.73;;;;;;;1.51;100.00;101630.09;5015797;28;20370;-67
2020/12/09 05:46:09;;;;;;;30.38;18.00;;;;;;;1.69;100.00;101622.06;5015933;28;20045;-68
2020/12/09 05:48:54;;;;;;;35.60;18.88;;;;;;;1.77;100.00;101616.28;5016470;28;20131;-66
2020/12/09 05:51:40;;;;;;;39.35;21.35;;;;;;;1.60;100.00;101616.59;5016434;28;20429;-66
2020/12/09 05:54:25;;;;;;;37.33;19.13;;;;;;;1.44;100.00;101599.72;5001555;28;20449;-66
2020/12/09 05:57:16;;;;;;;40.72;20.65;;;;;;;1.74;100.00;101590.41;5016033;28;20045;-66
2020/12/09 06:00:01;;;;;;;41.00;20.95;;;;;;;1.69;100.00;101585.91;5015312;28;20040;-66
2020/12/09 06:02:46;;;;;;;36.17;19.48;;;;;;;1.29;100.00;101575.97;5015826;28;20121;-67
2020/12/09 06:05:32;;;;;;;39.53;20.83;;;;;;;0.81;100.00;101568.28;5015376;28;20104;-67
2020/12/09 06:08:39;;;;;;;40.40;21.55;;;;;;;1.28;100.00;101568.19;5001645;28;20077;-66
2020/12/09 06:11:32;;;;;;;38.88;20.20;;;;;;;1.05;100.00;101588.06;5015539;28;20121;-66
2020/12/09 06:14:17;;;;;;;34.75;18.83;;;;;;;0.95;100.00;101580.81;5015041;28;20073;-66
2020/12/09 06:17:03;;;;;;;38.20;20.30;;;;;;;1.09;100.00;101589.94;5015220;28;20061;-66
2020/12/09 06:19:50;;;;;;;36.25;19.30;;;;;;;1.14;100.00;101610.72;5015292;28;20033;-66
2020/12/09 06:22:35;;;;;;;31.38;18.17;;;;;;;1.00;100.00;101617.13;5015189;28;20034;-65
2020/12/09 06:25:21;;;;;;;43.78;21.75;;;;;;;1.02;100.00;101608.59;5001457;28;20040;-68
2020/12/09 06:28:11;;;;;;;38.60;20.50;;;;;;;1.13;100.00;101609.84;5015349;28;20399;-67
2020/12/09 06:31:10;;;;;;;47.65;21.25;;;;;;;1.36;100.00;101610.63;5014218;28;20492;-66
2020/12/09 06:33:57;;;;;;;38.55;20.50;;;;;;;1.17;100.00;101628.91;5001090;28;20125;-66
2020/12/09 06:37:02;;;;;;;36.78;18.98;;;;;;;1.27;100.00;101626.69;5015148;28;20038;-67
2020/12/09 06:40:08;;;;;;;33.38;17.45;;;;;;;1.22;100.00;101633.41;5022188;28;20049;-66
2020/12/09 06:42:33;;;;;;;35.13;18.40;;;;;;;1.35;100.00;101634.66;5016092;28;20090;-67
2020/12/09 06:45:19;;;;;;;36.13;19.20;;;;;;;1.36;100.00;101636.44;5013052;28;20029;-66
2020/12/09 06:48:17;;;;;;;32.88;18.45;;;;;;;1.28;100.00;101630.16;5026585;28;20030;-66
2020/12/09 06:51:34;;;;;;;44.05;22.92;;;;;;;1.94;100.00;101627.19;5031175;28;20490;-66
2020/12/09 06:54:20;;;;;;;39.92;20.83;;;;;;;1.67;100.00;101634.94;5014784;28;20034;-66
2020/12/09 06:57:19;;;;;;;40.67;21.85;;;;;;;1.95;100.00;101628.91;5022793;28;20037;-65
2020/12/09 07:00:16;;;;;;;53.28;29.90;;;;;;;1.41;100.00;101630.59;5033646;28;20025;-67
2020/12/09 07:03:28;;;;;;;54.75;30.77;;;;;;;1.75;100.00;101636.06;5033935;28;20041;-67
2020/12/09 07:06:16;;;;;;;50.80;29.08;;;;;;;1.99;100.00;101629.06;5020139;28;20045;-66
2020/12/09 07:09:01;;;;;;;52.17;28.75;;;;;;;2.09;100.00;101631.09;5000516;28;20034;-67
2020/12/09 07:11:56;;;;;;;43.30;23.83;;;;;;;2.10;100.00;101625.13;5014305;28;20037;-66
2020/12/09 07:14:52;;;;;;;46.45;24.60;;;;;;;1.27;100.00;101620.63;5014219;28;20077;-65
2020/12/09 07:17:38;;;;;;;42.67;22.27;;;;;;;1.36;100.00;101598.59;5000691;28;20026;-67
2020/12/09 07:20:24;;;;;;;49.28;25.00;;;;;;;1.18;100.00;101597.09;5013220;28;20033;-66
2020/12/09 07:23:09;;;;;;;58.08;27.13;;;;;;;1.30;100.00;101589.75;5025789;28;20033;-67
2020/12/09 07:25:56;;;;;;;57.00;27.88;;;;;;;1.45;100.00;101595.44;5033268;28;20044;-66
2020/12/09 07:28:43;;;;;;;58.90;28.10;;;;;;;1.32;100.00;101591.56;5047429;28;20468;-66
2020/12/09 07:31:29;;;;;;;53.97;26.63;;;;;;;1.25;100.00;101581.00;5032681;28;20049;-66
2020/12/09 07:34:14;;;;;;;60.05;28.05;;;;;;;0.90;100.00;101576.31;5032887;28;20170;-66
2020/12/09 07:37:00;;;;;;;63.00;27.73;;;;;;;0.81;100.00;101565.69;5047432;28;20041;-67
2020/12/09 07:39:48;;;;;;;52.63;26.40;;;;;;;0.72;100.00;101562.81;5033034;28;20453;-66
2020/12/09 07:42:34;;;;;;;66.28;31.38;;;;;;;1.07;100.00;101565.75;5047356;28;20033;-66
2020/12/09 07:45:19;;;;;;;60.53;29.35;;;;;;;1.14;100.00;101567.75;5046691;28;20033;-66
2020/12/09 07:48:10;;;;;;;59.45;28.90;;;;;;;1.25;100.00;101562.94;5032959;28;20045;-66
2020/12/09 07:50:55;;;;;;;54.42;27.77;;;;;;;1.23;100.00;101580.06;5046786;28;20369;-66
2020/12/09 07:53:41;;;;;;;63.95;29.88;;;;;;;0.87;100.00;101590.00;5033334;28;20428;-65
2020/12/09 07:56:26;;;;;;;66.68;31.10;;;;;;;1.09;100.00;101587.34;5027844;28;20108;-65
2020/12/09 07:59:13;;;;;;;63.45;30.50;;;;;;;1.16;100.00;101607.34;5012601;28;20052;-66
2020/12/09 08:02:16;;;;;;;61.03;29.38;;;;;;;1.21;100.00;101611.00;5013098;28;20056;-67
2020/12/09 08:05:23;;;;;;;62.58;31.45;;;;;;;1.25;100.00;101599.94;5013268;28;20380;-66
2020/12/09 08:08:12;;;;;;;65.60;33.08;;;;;;;1.21;100.00;101598.09;5013349;28;20029;-66
2020/12/09 08:11:09;;;;;;;67.68;32.33;;;;;;;0.95;100.00;101587.69;4999058;28;20524;-66
2020/12/09 08:14:02;;;;;;;66.00;30.75;;;;;;;1.04;100.00;101581.13;4999712;28;20068;-67
2020/12/09 08:16:48;;;;;;;73.97;33.85;;;;;;;1.37;100.00;101566.78;5012852;28;20033;-66
2020/12/09 08:19:33;;;;;;;80.10;33.75;;;;;;;0.88;100.00;101567.69;5013131;28;20123;-66
2020/12/09 08:22:18;;;;;;;64.25;29.77;;;;;;;0.73;100.00;101577.44;5013105;28;20424;-66
2020/12/09 08:25:05;;;;;;;67.07;30.10;;;;;;;0.81;100.00;101584.66;5012867;28;20479;-66
2020/12/09 08:27:51;;;;;;;68.53;30.77;;;;;;;0.81;100.00;101570.84;5013211;28;20453;-66
2020/12/09 08:30:37;;;;;;;72.90;30.65;;;;;;;1.04;100.00;101586.28;5012215;28;20044;-66
2020/12/09 08:33:28;;;;;;;63.08;31.60;;;;;;;0.99;100.00;101586.97;5012797;28;20050;-66
2020/12/09 08:36:14;;;;;;;76.32;34.50;;;;;;;1.27;100.00;101585.38;5012779;28;20046;-65
2020/12/09 08:39:00;;;;;;;82.57;37.90;;;;;;;1.57;100.00;101590.69;5013123;28;20036;-66
2020/12/09 08:41:47;;;;;;;75.65;34.42;;;;;;;1.51;100.00;101593.03;5013011;28;20385;-66
2020/12/09 08:44:32;;;;;;;77.15;34.17;;;;;;;1.45;100.00;101575.66;4999094;28;20849;-66
2020/12/09 08:47:18;;;;;;;72.50;34.13;;;;;;;1.33;100.00;101575.25;5012589;28;20069;-67
2020/12/09 08:50:03;;;;;;;73.15;34.42;;;;;;;1.30;100.00;101569.13;5016165;28;20029;-66
2020/12/09 08:52:49;;;;;;;77.07;35.53;;;;;;;1.42;100.00;101562.66;5005590;28;20034;-65
2020/12/09 08:55:35;;;;;;;80.90;34.88;;;;;;;1.30;100.00;101566.53;5013614;28;20037;-68
2020/12/09 08:58:21;;;;;;;74.93;34.47;;;;;;;1.54;100.00;101577.66;5034937;28;20118;-65
2020/12/09 09:01:07;;;;;;;77.82;35.22;;;;;;;1.43;100.00;101559.25;5033743;28;20101;-65
2020/12/09 09:03:59;;;;;;;73.82;34.00;;;;;;;1.14;100.00;101554.84;5032182;28;20044;-66
2020/12/09 09:06:44;;;;;;;87.15;37.30;;;;;;;1.44;100.00;101558.41;5018280;28;20037;-66
2020/12/09 09:09:30;;;;;;;86.38;38.95;;;;;;;1.22;100.00;101540.47;5031919;28;20026;-66
2020/12/09 09:12:15;;;;;;;93.30;37.92;;;;;;;1.16;100.00;101549.72;5031471;28;20045;-66
2020/12/09 09:15:01;;;;;;;86.03;38.90;;;;;;;1.17;100.00;101539.47;5032090;28;20033;-66
2020/12/09 09:17:46;;;;;;;100.65;42.38;;;;;;;1.53;100.00;101535.44;5031900;28;20123;-66
2020/12/09 09:20:32;;;;;;;83.15;38.55;;;;;;;1.45;100.00;101529.16;5018009;28;20069;-67
2020/12/09 09:23:18;;;;;;;95.15;40.40;;;;;;;1.56;100.00;101532.97;5046001;28;20091;-65
2020/12/09 09:26:03;;;;;;;85.80;38.47;;;;;;;1.77;100.00;101540.53;5045686;28;20041;-66
2020/12/09 09:28:49;;;;;;;91.22;40.83;;;;;;;1.73;100.00;101529.22;5032032;28;20124;-66
2020/12/09 09:31:34;;;;;;;89.15;40.17;;;;;;;2.13;100.00;101536.47;5031425;28;20131;-65
2020/12/09 09:34:19;;;;;;;84.45;37.70;;;;;;;2.04;100.00;101529.31;5031679;28;20120;-67
2020/12/09 09:37:07;;;;;;;88.85;36.92;;;;;;;2.27;100.00;101527.38;5031663;28;20038;-67
2020/12/09 09:39:53;;;;;;;88.45;40.22;;;;;;;2.03;100.00;101534.44;5031851;28;20510;-66
2020/12/09 09:42:39;;;;;;;83.05;37.78;;;;;;;1.68;100.00;101523.03;5031600;28;20393;-66
2020/12/09 09:45:25;;;;;;;93.80;38.58;;;;;;;2.04;100.00;101529.31;5031529;28;20029;-67
2020/12/09 09:48:10;;;;;;;83.57;39.08;;;;;;;1.82;100.00;101541.53;5031605;28;20112;-67
2020/12/09 09:50:56;;;;;;;81.90;36.97;;;;;;;1.73;100.00;101531.78;5031274;28;20040;-67
2020/12/09 09:53:41;;;;;;;85.40;36.50;;;;;;;1.67;100.00;101534.19;5031709;28;20033;-66
2020/12/09 09:56:27;;;;;;;86.18;37.35;;;;;;;1.58;100.00;101523.59;5025744;28;20100;-65
2020/12/09 09:59:12;;;;;;;76.97;36.80;;;;;;;1.72;100.00;101526.59;5011681;28;20025;-67
2020/12/09 10:01:58;;;;;;;82.63;38.72;;;;;;;1.74;100.00;101535.25;4997913;28;20041;-66
2020/12/09 10:04:44;;;;;;;86.50;38.63;;;;;;;1.56;100.00;101519.22;5011595;28;20033;-66
2020/12/09 10:07:30;;;;;;;92.35;41.95;;;;;;;2.29;100.00;101526.59;5011474;28;20052;-66
2020/12/09 10:10:15;;;;;;;81.00;37.72;;;;;;;1.86;100.00;101509.81;5011235;28;20347;-67
2020/12/09 10:13:01;;;;;;;84.72;38.70;;;;;;;1.85;100.00;101503.75;5011875;28;20397;-66
2020/12/09 10:15:46;;;;;;;91.07;39.88;;;;;;;1.59;100.00;101502.09;5011484;28;20472;-67
2020/12/09 10:18:32;;;;;;;85.10;38.95;;;;;;;2.03;100.00;101493.97;5011536;28;20100;-66
2020/12/09 10:21:24;;;;;;;87.50;40.17;;;;;;;2.02;100.00;101499.97;5011496;28;20096;-67
2020/12/09 10:24:10;;;;;;;85.47;37.97;;;;;;;1.68;100.00;101480.84;5015034;28;20449;-66
2020/12/09 10:26:55;;;;;;;83.38;37.63;;;;;;;2.01;100.00;101482.69;5014718;28;20060;-67
2020/12/09 10:29:43;;;;;;;77.40;38.05;;;;;;;2.16;100.00;101483.13;5015019;28;20034;-66
2020/12/09 10:32:29;;;;;;;84.82;39.22;;;;;;;1.69;100.00;101475.69;5000963;28;20054;-66
2020/12/09 10:35:14;;;;;;;84.28;39.22;;;;;;;2.01;100.00;101485.28;5014551;28;20027;-67
2020/12/09 10:38:00;;;;;;;76.35;35.97;;;;;;;1.79;100.00;101482.91;5015005;28;20072;-67
2020/12/09 10:40:45;;;;;;;87.35;37.78;;;;;;;1.70;100.00;101477.47;5014443;28;20030;-66
2020/12/09 10:43:30;;;;;;;88.32;37.22;;;;;;;1.71;100.00;101478.34;5001245;28;20096;-66
2020/12/09 10:46:16;;;;;;;84.55;37.25;;;;;;;1.59;100.00;101483.13;5014622;28;20428;-66
2020/12/09 10:49:03;;;;;;;77.15;36.50;;;;;;;2.02;100.00;101478.41;5014431;28;20091;-66
2020/12/09 10:51:54;;;;;;;91.28;39.92;;;;;;;2.06;100.00;101475.97;5014162;28;20037;-67
2020/12/09 10:54:40;;;;;;;88.38;39.38;;;;;;;1.91;100.00;101467.78;5014477;28;20044;-66
2020/12/09 10:57:26;;;;;;;89.30;37.67;;;;;;;1.85;100.00;101453.81;5027868;28;20033;-67
2020/12/09 11:00:12;;;;;;;96.28;40.67;;;;;;;1.72;100.00;101449.97;5034204;28;20052;-67
2020/12/09 11:02:57;;;;;;;104.70;42.60;;;;;;;1.85;100.00;101443.47;5019879;28;20457;-67
2020/12/09 11:05:43;;;;;;;97.63;41.55;;;;;;;1.51;100.00;101432.97;5033634;28;20037;-67
2020/12/09 11:08:28;;;;;;;104.47;41.92;;;;;;;1.38;100.00;101428.25;5034293;28;20041;-67
2020/12/09 11:11:13;;;;;;;102.97;42.83;;;;;;;1.59;100.00;101432.38;5033549;28;20099;-67
2020/12/09 11:13:59;;;;;;;101.53;42.40;;;;;;;1.68;100.00;101426.63;5034100;28;20112;-67
2020/12/09 11:16:45;;;;;;;115.90;46.55;;;;;;;1.53;100.00;101423.56;5033647;28;20116;-66
2020/12/09 11:19:33;;;;;;;110.53;43.72;;;;;;;1.65;100.00;101417.03;5034025;28;20029;-66
2020/12/09 11:22:19;;;;;;;108.65;44.63;;;;;;;1.59;100.00;101419.47;5033600;28;20060;-67
2020/12/09 11:25:10;;;;;;;111.43;44.30;;;;;;;1.84;100.00;101431.41;5033459;28;20033;-67
2020/12/09 11:27:56;;;;;;;116.22;42.97;;;;;;;1.67;100.00;101424.84;5033633;28;20427;-65
2020/12/09 11:30:41;;;;;;;115.30;46.10;;;;;;;1.66;100.00;101426.56;5033108;28;20048;-68
2020/12/09 11:33:26;;;;;;;115.00;45.45;;;;;;;1.55;100.00;101417.63;5032281;28;20029;-66
2020/12/09 11:36:12;;;;;;;114.70;45.00;;;;;;;1.29;100.00;101399.59;5033004;28;20459;-67
2020/12/09 11:38:57;;;;;;;116.97;43.78;;;;;;;1.56;100.00;101406.44;5033569;28;20353;-67
2020/12/09 11:41:43;;;;;;;123.78;47.22;;;;;;;1.58;100.00;101401.34;5033139;28;20044;-66
2020/12/09 11:44:28;;;;;;;121.57;45.88;;;;;;;1.51;100.00;101392.53;5033760;28;20377;-67
2020/12/09 11:47:14;;;;;;;121.65;46.72;;;;;;;1.50;100.00;101393.38;5033300;28;20033;-67
2020/12/09 11:49:59;;;;;;;127.47;50.75;;;;;;;1.70;100.00;101386.19;5033965;28;20044;-67
2020/12/09 11:52:45;;;;;;;127.82;48.28;;;;;;;1.72;100.00;101380.25;5033320;28;20492;-67
2020/12/09 11:55:30;;;;;;;115.07;45.85;;;;;;;1.68;100.00;101382.72;5033512;28;20029;-68
2020/12/09 11:58:16;;;;;;;107.78;44.05;;;;;;;1.62;100.00;101387.69;5014171;28;20034;-65
2020/12/09 12:01:05;;;;;;;117.40;46.80;;;;;;;1.90;100.00;101385.06;5013175;28;20449;-67
2020/12/09 12:03:51;;;;;;;132.13;51.88;;;;;;;2.14;100.00;101376.28;5013248;28;20065;-66
2020/12/09 12:06:36;;;;;;;114.00;45.33;;;;;;;2.07;100.00;101379.50;5026796;28;20120;-66
2020/12/09 12:09:22;;;;;;;102.45;43.72;;;;;;;2.10;100.00;101373.56;4999665;28;20042;-66
2020/12/09 12:12:07;;;;;;;108.60;45.38;;;;;;;2.00;100.00;101364.66;5012791;28;20034;-65
2020/12/09 12:14:52;;;;;;;118.63;45.45;;;;;;;1.58;100.00;101366.06;5013235;28;20362;-65
2020/12/09 12:17:38;;;;;;;123.82;47.75;;;;;;;1.83;100.00;101367.63;5026552;28;20489;-66
2020/12/09 12:20:23;;;;;;;115.55;46.58;;;;;;;2.01;100.00;101358.66;5012911;28;20037;-67
2020/12/09 12:23:08;;;;;;;111.25;46.92;;;;;;;2.20;100.00;101360.91;5012685;28;20052;-66
2020/12/09 12:25:57;;;;;;;120.82;46.53;;;;;;;1.90;100.00;101352.34;5012822;28;20103;-65
2020/12/09 12:28:43;;;;;;;121.03;46.45;;;;;;;1.78;100.00;101366.63;5013072;28;20030;-66
2020/12/09 12:31:28;;;;;;;116.10;44.50;;;;;;;1.78;100.00;101351.13;5026022;28;20057;-66
2020/12/09 12:34:14;;;;;;;122.35;45.88;;;;;;;1.67;100.00;101355.13;5012695;28;20038;-67
2020/12/09 12:36:59;;;;;;;125.43;47.70;;;;;;;1.58;100.00;101347.13;5012660;28;20047;-67
2020/12/09 12:39:45;;;;;;;132.50;47.55;;;;;;;1.53;100.00;101344.38;5026240;28;20485;-67